sensor_id;sensor_type;location;lat;lon;timestamp;P1;durP1;ratioP1;P2;durP2;ratioP2
66127;SDS011;52925;52.436;-1.952;2023-07-29T00:01:07;2.30;;;1.80;;
66127;SDS011;52925;52.436;-1.952;2023-07-29T00:02:27;3.83;;;2.03;;
66127;SDS011;52925;52.436;-1.952;2023-07-29T00:03:49;3.00;;;1.90;;
66127;SDS011;52925;52.436;-1.952;2023-07-29T00:05:10;2.50;;;1.67;;
66127;SDS011;52925;52.436;-1.952;2023-07-29T00:06:31;2.37;;;2.13;;
66127;SDS011;52925;52.436;-1.952;2023-07-29T00:07:52;3.70;;;1.93;;
66127;SDS011;52925;52.436;-1.952;2023-07-29T00:09:13;3.20;;;1.83;;
66127;SDS011;52925;52.436;-1.952;2023-07-29T00:10:35;3.30;;;1.80;;
66127;SDS011;52925;52.436;-1.952;2023-07-29T00:11:57;4.50;;;2.07;;
66127;SDS011;52925;52.436;-1.952;2023-07-29T00:13:16;3.43;;;1.90;;
66127;SDS011;52925;52.436;-1.952;2023-07-29T00:14:37;4.93;;;1.80;;
66127;SDS011;52925;52.436;-1.952;2023-07-29T00:15:57;3.07;;;2.07;;
66127;SDS011;52925;52.436;-1.952;2023-07-29T00:17:18;4.10;;;2.00;;
66127;SDS011;52925;52.436;-1.952;2023-07-29T00:18:39;3.17;;;1.93;;
66127;SDS011;52925;52.436;-1.952;2023-07-29T00:20:00;3.00;;;2.00;;
66127;SDS011;52925;52.436;-1.952;2023-07-29T00:21:20;3.07;;;2.20;;
66127;SDS011;52925;52.436;-1.952;2023-07-29T00:22:41;3.90;;;2.03;;
66127;SDS011;52925;52.436;-1.952;2023-07-29T00:24:02;3.70;;;1.93;;
66127;SDS011;52925;52.436;-1.952;2023-07-29T00:25:23;2.37;;;1.93;;
66127;SDS011;52925;52.436;-1.952;2023-07-29T00:26:43;3.00;;;1.77;;
66127;SDS011;52925;52.436;-1.952;2023-07-29T00:28:04;3.13;;;1.97;;
66127;SDS011;52925;52.436;-1.952;2023-07-29T00:29:24;3.13;;;2.07;;
66127;SDS011;52925;52.436;-1.952;2023-07-29T00:30:45;4.73;;;2.27;;
66127;SDS011;52925;52.436;-1.952;2023-07-29T00:32:05;3.13;;;1.97;;
66127;SDS011;52925;52.436;-1.952;2023-07-29T00:33:26;3.13;;;1.80;;
66127;SDS011;52925;52.436;-1.952;2023-07-29T00:34:46;2.03;;;1.83;;
66127;SDS011;52925;52.436;-1.952;2023-07-29T00:36:07;2.93;;;1.73;;
66127;SDS011;52925;52.436;-1.952;2023-07-29T00:37:27;2.43;;;1.70;;
66127;SDS011;52925;52.436;-1.952;2023-07-29T00:38:49;2.27;;;1.67;;
66127;SDS011;52925;52.436;-1.952;2023-07-29T00:40:12;2.40;;;2.00;;
66127;SDS011;52925;52.436;-1.952;2023-07-29T00:41:35;4.00;;;1.70;;
66127;SDS011;52925;52.436;-1.952;2023-07-29T00:42:55;4.57;;;1.90;;
66127;SDS011;52925;52.436;-1.952;2023-07-29T00:44:16;3.57;;;1.83;;
66127;SDS011;52925;52.436;-1.952;2023-07-29T00:45:36;2.53;;;1.90;;
66127;SDS011;52925;52.436;-1.952;2023-07-29T00:47:00;3.63;;;2.00;;
66127;SDS011;52925;52.436;-1.952;2023-07-29T00:48:21;2.40;;;1.73;;
66127;SDS011;52925;52.436;-1.952;2023-07-29T00:49:43;3.20;;;1.77;;
66127;SDS011;52925;52.436;-1.952;2023-07-29T00:51:03;2.13;;;1.80;;
66127;SDS011;52925;52.436;-1.952;2023-07-29T00:52:24;2.27;;;1.60;;
66127;SDS011;52925;52.436;-1.952;2023-07-29T00:53:47;3.87;;;1.63;;
66127;SDS011;52925;52.436;-1.952;2023-07-29T00:55:08;3.03;;;1.83;;
66127;SDS011;52925;52.436;-1.952;2023-07-29T00:56:30;2.60;;;1.67;;
66127;SDS011;52925;52.436;-1.952;2023-07-29T00:57:51;3.93;;;1.80;;
66127;SDS011;52925;52.436;-1.952;2023-07-29T00:59:13;4.20;;;1.57;;
66127;SDS011;52925;52.436;-1.952;2023-07-29T01:00:33;3.30;;;1.60;;
66127;SDS011;52925;52.436;-1.952;2023-07-29T01:01:56;2.97;;;1.70;;
66127;SDS011;52925;52.436;-1.952;2023-07-29T01:03:17;2.80;;;1.53;;
66127;SDS011;52925;52.436;-1.952;2023-07-29T01:04:37;3.20;;;1.70;;
66127;SDS011;52925;52.436;-1.952;2023-07-29T01:06:01;3.60;;;1.80;;
66127;SDS011;52925;52.436;-1.952;2023-07-29T01:07:33;1.93;;;1.70;;
66127;SDS011;52925;52.436;-1.952;2023-07-29T01:09:00;2.60;;;1.60;;
66127;SDS011;52925;52.436;-1.952;2023-07-29T01:10:26;3.63;;;1.70;;
66127;SDS011;52925;52.436;-1.952;2023-07-29T01:11:55;4.03;;;1.80;;
66127;SDS011;52925;52.436;-1.952;2023-07-29T01:13:25;2.43;;;1.50;;
66127;SDS011;52925;52.436;-1.952;2023-07-29T01:14:54;3.23;;;1.50;;
66127;SDS011;52925;52.436;-1.952;2023-07-29T01:16:20;2.57;;;1.57;;
66127;SDS011;52925;52.436;-1.952;2023-07-29T01:17:46;3.47;;;1.77;;
66127;SDS011;52925;52.436;-1.952;2023-07-29T01:19:13;2.47;;;1.40;;
66127;SDS011;52925;52.436;-1.952;2023-07-29T01:20:42;2.37;;;1.40;;
66127;SDS011;52925;52.436;-1.952;2023-07-29T01:22:06;4.60;;;1.70;;
66127;SDS011;52925;52.436;-1.952;2023-07-29T01:23:30;3.33;;;1.60;;
66127;SDS011;52925;52.436;-1.952;2023-07-29T01:24:52;2.73;;;1.50;;
66127;SDS011;52925;52.436;-1.952;2023-07-29T01:26:11;2.30;;;1.73;;
66127;SDS011;52925;52.436;-1.952;2023-07-29T01:27:33;3.57;;;1.53;;
66127;SDS011;52925;52.436;-1.952;2023-07-29T01:28:53;1.80;;;1.40;;
66127;SDS011;52925;52.436;-1.952;2023-07-29T01:30:14;2.63;;;1.50;;
66127;SDS011;52925;52.436;-1.952;2023-07-29T01:31:37;3.90;;;1.73;;
66127;SDS011;52925;52.436;-1.952;2023-07-29T01:33:03;3.03;;;1.57;;
66127;SDS011;52925;52.436;-1.952;2023-07-29T01:34:29;2.43;;;1.60;;
66127;SDS011;52925;52.436;-1.952;2023-07-29T01:35:55;3.53;;;1.83;;
66127;SDS011;52925;52.436;-1.952;2023-07-29T01:37:22;3.50;;;1.57;;
66127;SDS011;52925;52.436;-1.952;2023-07-29T01:38:47;2.13;;;1.40;;
66127;SDS011;52925;52.436;-1.952;2023-07-29T01:40:09;2.17;;;1.53;;
66127;SDS011;52925;52.436;-1.952;2023-07-29T01:41:29;1.83;;;1.50;;
66127;SDS011;52925;52.436;-1.952;2023-07-29T01:42:51;3.30;;;1.87;;
66127;SDS011;52925;52.436;-1.952;2023-07-29T01:44:11;2.80;;;1.57;;
66127;SDS011;52925;52.436;-1.952;2023-07-29T01:45:33;3.37;;;1.70;;
66127;SDS011;52925;52.436;-1.952;2023-07-29T01:46:57;1.90;;;1.53;;
66127;SDS011;52925;52.436;-1.952;2023-07-29T01:48:18;2.43;;;1.70;;
66127;SDS011;52925;52.436;-1.952;2023-07-29T01:49:38;2.33;;;1.50;;
66127;SDS011;52925;52.436;-1.952;2023-07-29T01:50:59;1.90;;;1.43;;
66127;SDS011;52925;52.436;-1.952;2023-07-29T01:52:19;2.13;;;1.30;;
66127;SDS011;52925;52.436;-1.952;2023-07-29T01:53:40;3.07;;;1.60;;
66127;SDS011;52925;52.436;-1.952;2023-07-29T01:55:02;2.83;;;1.43;;
66127;SDS011;52925;52.436;-1.952;2023-07-29T01:56:22;3.17;;;1.63;;
66127;SDS011;52925;52.436;-1.952;2023-07-29T01:57:46;3.27;;;1.57;;
66127;SDS011;52925;52.436;-1.952;2023-07-29T01:59:08;2.83;;;1.73;;
66127;SDS011;52925;52.436;-1.952;2023-07-29T02:00:28;3.37;;;1.60;;
66127;SDS011;52925;52.436;-1.952;2023-07-29T02:01:49;2.80;;;1.60;;
66127;SDS011;52925;52.436;-1.952;2023-07-29T02:03:09;3.27;;;1.50;;
66127;SDS011;52925;52.436;-1.952;2023-07-29T02:04:30;2.57;;;1.47;;
66127;SDS011;52925;52.436;-1.952;2023-07-29T02:05:50;2.13;;;1.67;;
66127;SDS011;52925;52.436;-1.952;2023-07-29T02:07:10;2.67;;;1.70;;
66127;SDS011;52925;52.436;-1.952;2023-07-29T02:08:31;2.17;;;1.53;;
66127;SDS011;52925;52.436;-1.952;2023-07-29T02:09:51;2.50;;;1.50;;
66127;SDS011;52925;52.436;-1.952;2023-07-29T02:11:13;2.33;;;1.50;;
66127;SDS011;52925;52.436;-1.952;2023-07-29T02:12:34;2.40;;;1.67;;
66127;SDS011;52925;52.436;-1.952;2023-07-29T02:13:54;1.77;;;1.23;;
66127;SDS011;52925;52.436;-1.952;2023-07-29T02:15:15;1.90;;;1.30;;
66127;SDS011;52925;52.436;-1.952;2023-07-29T02:16:35;1.67;;;1.40;;
66127;SDS011;52925;52.436;-1.952;2023-07-29T02:17:58;3.03;;;1.73;;
66127;SDS011;52925;52.436;-1.952;2023-07-29T02:19:18;2.67;;;1.80;;
66127;SDS011;52925;52.436;-1.952;2023-07-29T02:20:39;2.57;;;1.57;;
66127;SDS011;52925;52.436;-1.952;2023-07-29T02:22:00;2.73;;;1.93;;
66127;SDS011;52925;52.436;-1.952;2023-07-29T02:23:21;3.30;;;1.30;;
66127;SDS011;52925;52.436;-1.952;2023-07-29T02:24:41;2.70;;;1.50;;
66127;SDS011;52925;52.436;-1.952;2023-07-29T02:26:01;3.33;;;1.47;;
66127;SDS011;52925;52.436;-1.952;2023-07-29T02:27:23;2.50;;;1.83;;
66127;SDS011;52925;52.436;-1.952;2023-07-29T02:28:46;3.80;;;1.80;;
66127;SDS011;52925;52.436;-1.952;2023-07-29T02:30:06;3.40;;;1.87;;
66127;SDS011;52925;52.436;-1.952;2023-07-29T02:31:29;4.90;;;1.80;;
66127;SDS011;52925;52.436;-1.952;2023-07-29T02:32:48;3.00;;;1.80;;
66127;SDS011;52925;52.436;-1.952;2023-07-29T02:34:09;2.27;;;1.70;;
66127;SDS011;52925;52.436;-1.952;2023-07-29T02:35:29;4.50;;;1.90;;
66127;SDS011;52925;52.436;-1.952;2023-07-29T02:36:50;2.67;;;1.80;;
66127;SDS011;52925;52.436;-1.952;2023-07-29T02:38:10;2.40;;;2.00;;
66127;SDS011;52925;52.436;-1.952;2023-07-29T02:39:31;3.13;;;1.90;;
66127;SDS011;52925;52.436;-1.952;2023-07-29T02:40:51;4.10;;;1.87;;
66127;SDS011;52925;52.436;-1.952;2023-07-29T02:42:12;4.00;;;2.13;;
66127;SDS011;52925;52.436;-1.952;2023-07-29T02:43:33;3.93;;;2.43;;
66127;SDS011;52925;52.436;-1.952;2023-07-29T02:44:54;3.80;;;2.00;;
66127;SDS011;52925;52.436;-1.952;2023-07-29T02:46:13;2.83;;;2.00;;
66127;SDS011;52925;52.436;-1.952;2023-07-29T02:47:34;4.23;;;2.43;;
66127;SDS011;52925;52.436;-1.952;2023-07-29T02:48:54;4.30;;;2.10;;
66127;SDS011;52925;52.436;-1.952;2023-07-29T02:50:15;3.07;;;1.93;;
66127;SDS011;52925;52.436;-1.952;2023-07-29T02:51:35;2.80;;;1.70;;
66127;SDS011;52925;52.436;-1.952;2023-07-29T02:52:56;3.27;;;1.73;;
66127;SDS011;52925;52.436;-1.952;2023-07-29T02:54:15;4.33;;;2.33;;
66127;SDS011;52925;52.436;-1.952;2023-07-29T02:55:39;4.13;;;2.20;;
66127;SDS011;52925;52.436;-1.952;2023-07-29T02:56:59;2.83;;;1.97;;
66127;SDS011;52925;52.436;-1.952;2023-07-29T02:58:19;4.30;;;2.10;;
66127;SDS011;52925;52.436;-1.952;2023-07-29T02:59:41;4.07;;;2.30;;
66127;SDS011;52925;52.436;-1.952;2023-07-29T03:01:02;4.33;;;2.13;;
66127;SDS011;52925;52.436;-1.952;2023-07-29T03:02:21;7.67;;;2.20;;
66127;SDS011;52925;52.436;-1.952;2023-07-29T03:03:42;2.50;;;1.90;;
66127;SDS011;52925;52.436;-1.952;2023-07-29T03:05:02;3.87;;;2.07;;
66127;SDS011;52925;52.436;-1.952;2023-07-29T03:06:23;4.60;;;2.30;;
66127;SDS011;52925;52.436;-1.952;2023-07-29T03:07:44;4.57;;;2.07;;
66127;SDS011;52925;52.436;-1.952;2023-07-29T03:09:04;3.33;;;2.20;;
66127;SDS011;52925;52.436;-1.952;2023-07-29T03:10:24;5.13;;;2.17;;
66127;SDS011;52925;52.436;-1.952;2023-07-29T03:11:45;3.47;;;2.00;;
66127;SDS011;52925;52.436;-1.952;2023-07-29T03:13:05;3.97;;;2.40;;
66127;SDS011;52925;52.436;-1.952;2023-07-29T03:14:26;3.87;;;2.20;;
66127;SDS011;52925;52.436;-1.952;2023-07-29T03:15:48;5.80;;;2.47;;
66127;SDS011;52925;52.436;-1.952;2023-07-29T03:17:09;5.00;;;2.50;;
66127;SDS011;52925;52.436;-1.952;2023-07-29T03:18:29;4.67;;;2.60;;
66127;SDS011;52925;52.436;-1.952;2023-07-29T03:19:50;3.63;;;2.30;;
66127;SDS011;52925;52.436;-1.952;2023-07-29T03:21:10;4.30;;;2.70;;
66127;SDS011;52925;52.436;-1.952;2023-07-29T03:22:32;3.10;;;2.20;;
66127;SDS011;52925;52.436;-1.952;2023-07-29T03:23:51;3.33;;;2.20;;
66127;SDS011;52925;52.436;-1.952;2023-07-29T03:25:13;4.63;;;2.20;;
66127;SDS011;52925;52.436;-1.952;2023-07-29T03:26:33;4.77;;;2.90;;
66127;SDS011;52925;52.436;-1.952;2023-07-29T03:27:54;3.90;;;2.43;;
66127;SDS011;52925;52.436;-1.952;2023-07-29T03:29:14;4.87;;;2.27;;
66127;SDS011;52925;52.436;-1.952;2023-07-29T03:30:34;4.17;;;2.20;;
66127;SDS011;52925;52.436;-1.952;2023-07-29T03:31:56;2.83;;;2.53;;
66127;SDS011;52925;52.436;-1.952;2023-07-29T03:33:17;4.77;;;2.27;;
66127;SDS011;52925;52.436;-1.952;2023-07-29T03:34:37;3.80;;;2.40;;
66127;SDS011;52925;52.436;-1.952;2023-07-29T03:35:59;2.97;;;2.20;;
66127;SDS011;52925;52.436;-1.952;2023-07-29T03:37:19;4.63;;;2.63;;
66127;SDS011;52925;52.436;-1.952;2023-07-29T03:38:40;4.60;;;2.30;;
66127;SDS011;52925;52.436;-1.952;2023-07-29T03:40:00;5.10;;;2.90;;
66127;SDS011;52925;52.436;-1.952;2023-07-29T03:41:21;5.13;;;2.70;;
66127;SDS011;52925;52.436;-1.952;2023-07-29T03:42:41;4.80;;;2.63;;
66127;SDS011;52925;52.436;-1.952;2023-07-29T03:44:02;3.13;;;2.37;;
66127;SDS011;52925;52.436;-1.952;2023-07-29T03:45:23;4.53;;;2.73;;
66127;SDS011;52925;52.436;-1.952;2023-07-29T03:46:44;4.23;;;2.53;;
66127;SDS011;52925;52.436;-1.952;2023-07-29T03:48:05;3.90;;;2.23;;
66127;SDS011;52925;52.436;-1.952;2023-07-29T03:49:27;4.60;;;2.33;;
66127;SDS011;52925;52.436;-1.952;2023-07-29T03:50:47;5.23;;;2.63;;
66127;SDS011;52925;52.436;-1.952;2023-07-29T03:52:08;4.30;;;2.50;;
66127;SDS011;52925;52.436;-1.952;2023-07-29T03:53:28;5.37;;;3.07;;
66127;SDS011;52925;52.436;-1.952;2023-07-29T03:54:48;3.63;;;2.60;;
66127;SDS011;52925;52.436;-1.952;2023-07-29T03:56:08;3.40;;;2.30;;
66127;SDS011;52925;52.436;-1.952;2023-07-29T03:57:29;5.43;;;2.67;;
66127;SDS011;52925;52.436;-1.952;2023-07-29T03:58:49;4.90;;;2.50;;
66127;SDS011;52925;52.436;-1.952;2023-07-29T04:00:10;3.77;;;2.80;;
66127;SDS011;52925;52.436;-1.952;2023-07-29T04:01:39;5.13;;;2.50;;
66127;SDS011;52925;52.436;-1.952;2023-07-29T04:03:00;4.03;;;2.13;;
66127;SDS011;52925;52.436;-1.952;2023-07-29T04:04:21;3.97;;;2.63;;
66127;SDS011;52925;52.436;-1.952;2023-07-29T04:05:42;5.43;;;2.60;;
66127;SDS011;52925;52.436;-1.952;2023-07-29T04:07:02;6.40;;;2.53;;
66127;SDS011;52925;52.436;-1.952;2023-07-29T04:08:23;4.57;;;2.70;;
66127;SDS011;52925;52.436;-1.952;2023-07-29T04:09:43;3.37;;;2.67;;
66127;SDS011;52925;52.436;-1.952;2023-07-29T04:11:04;5.10;;;2.33;;
66127;SDS011;52925;52.436;-1.952;2023-07-29T04:12:24;5.53;;;2.50;;
66127;SDS011;52925;52.436;-1.952;2023-07-29T04:13:45;5.57;;;2.30;;
66127;SDS011;52925;52.436;-1.952;2023-07-29T04:15:06;6.03;;;2.40;;
66127;SDS011;52925;52.436;-1.952;2023-07-29T04:16:27;2.97;;;1.87;;
66127;SDS011;52925;52.436;-1.952;2023-07-29T04:17:47;4.07;;;2.20;;
66127;SDS011;52925;52.436;-1.952;2023-07-29T04:19:08;3.67;;;2.40;;
66127;SDS011;52925;52.436;-1.952;2023-07-29T04:20:30;3.93;;;2.30;;
66127;SDS011;52925;52.436;-1.952;2023-07-29T04:21:51;3.60;;;2.20;;
66127;SDS011;52925;52.436;-1.952;2023-07-29T04:23:11;5.23;;;2.50;;
66127;SDS011;52925;52.436;-1.952;2023-07-29T04:24:32;4.77;;;2.03;;
66127;SDS011;52925;52.436;-1.952;2023-07-29T04:25:52;5.33;;;2.30;;
66127;SDS011;52925;52.436;-1.952;2023-07-29T04:27:12;5.87;;;2.00;;
66127;SDS011;52925;52.436;-1.952;2023-07-29T04:28:33;5.17;;;2.10;;
66127;SDS011;52925;52.436;-1.952;2023-07-29T04:29:54;5.20;;;2.43;;
66127;SDS011;52925;52.436;-1.952;2023-07-29T04:31:14;5.53;;;2.23;;
66127;SDS011;52925;52.436;-1.952;2023-07-29T04:32:35;7.83;;;2.50;;
66127;SDS011;52925;52.436;-1.952;2023-07-29T04:33:55;4.03;;;2.00;;
66127;SDS011;52925;52.436;-1.952;2023-07-29T04:35:16;4.60;;;2.63;;
66127;SDS011;52925;52.436;-1.952;2023-07-29T04:36:37;3.27;;;2.00;;
66127;SDS011;52925;52.436;-1.952;2023-07-29T04:37:58;4.07;;;2.10;;
66127;SDS011;52925;52.436;-1.952;2023-07-29T04:39:18;3.47;;;2.30;;
66127;SDS011;52925;52.436;-1.952;2023-07-29T04:40:39;4.30;;;2.17;;
66127;SDS011;52925;52.436;-1.952;2023-07-29T04:41:58;4.33;;;2.30;;
66127;SDS011;52925;52.436;-1.952;2023-07-29T04:43:19;5.20;;;2.43;;
66127;SDS011;52925;52.436;-1.952;2023-07-29T04:44:39;4.17;;;2.43;;
66127;SDS011;52925;52.436;-1.952;2023-07-29T04:46:02;5.57;;;2.23;;
66127;SDS011;52925;52.436;-1.952;2023-07-29T04:47:25;4.97;;;2.53;;
66127;SDS011;52925;52.436;-1.952;2023-07-29T04:48:46;4.13;;;2.00;;
66127;SDS011;52925;52.436;-1.952;2023-07-29T04:50:06;5.17;;;2.03;;
66127;SDS011;52925;52.436;-1.952;2023-07-29T04:51:29;5.73;;;2.37;;
66127;SDS011;52925;52.436;-1.952;2023-07-29T04:52:52;4.37;;;1.90;;
66127;SDS011;52925;52.436;-1.952;2023-07-29T04:54:12;3.63;;;1.70;;
66127;SDS011;52925;52.436;-1.952;2023-07-29T04:55:32;4.13;;;1.87;;
66127;SDS011;52925;52.436;-1.952;2023-07-29T04:56:53;4.63;;;2.00;;
66127;SDS011;52925;52.436;-1.952;2023-07-29T04:58:14;4.50;;;1.83;;
66127;SDS011;52925;52.436;-1.952;2023-07-29T04:59:34;3.67;;;2.00;;
66127;SDS011;52925;52.436;-1.952;2023-07-29T05:00:55;4.60;;;2.00;;
66127;SDS011;52925;52.436;-1.952;2023-07-29T05:02:16;3.13;;;1.93;;
66127;SDS011;52925;52.436;-1.952;2023-07-29T05:03:36;4.83;;;1.83;;
66127;SDS011;52925;52.436;-1.952;2023-07-29T05:04:58;6.73;;;2.13;;
66127;SDS011;52925;52.436;-1.952;2023-07-29T05:06:18;5.23;;;2.30;;
66127;SDS011;52925;52.436;-1.952;2023-07-29T05:07:39;4.33;;;2.23;;
66127;SDS011;52925;52.436;-1.952;2023-07-29T05:09:01;5.57;;;1.97;;
66127;SDS011;52925;52.436;-1.952;2023-07-29T05:10:34;5.37;;;2.23;;
66127;SDS011;52925;52.436;-1.952;2023-07-29T05:11:54;4.93;;;2.23;;
66127;SDS011;52925;52.436;-1.952;2023-07-29T05:13:15;4.77;;;2.10;;
66127;SDS011;52925;52.436;-1.952;2023-07-29T05:14:34;3.83;;;2.10;;
66127;SDS011;52925;52.436;-1.952;2023-07-29T05:15:56;2.97;;;1.80;;
66127;SDS011;52925;52.436;-1.952;2023-07-29T05:17:15;4.00;;;1.87;;
66127;SDS011;52925;52.436;-1.952;2023-07-29T05:18:36;3.80;;;1.93;;
66127;SDS011;52925;52.436;-1.952;2023-07-29T05:19:57;5.33;;;2.40;;
66127;SDS011;52925;52.436;-1.952;2023-07-29T05:21:18;4.70;;;1.93;;
66127;SDS011;52925;52.436;-1.952;2023-07-29T05:22:38;3.73;;;2.10;;
66127;SDS011;52925;52.436;-1.952;2023-07-29T05:23:58;4.37;;;1.80;;
66127;SDS011;52925;52.436;-1.952;2023-07-29T05:25:19;5.30;;;1.87;;
66127;SDS011;52925;52.436;-1.952;2023-07-29T05:26:40;2.80;;;1.73;;
66127;SDS011;52925;52.436;-1.952;2023-07-29T05:28:00;2.83;;;2.00;;
66127;SDS011;52925;52.436;-1.952;2023-07-29T05:29:21;5.10;;;2.30;;
66127;SDS011;52925;52.436;-1.952;2023-07-29T05:30:41;3.93;;;1.93;;
66127;SDS011;52925;52.436;-1.952;2023-07-29T05:32:04;3.93;;;1.80;;
66127;SDS011;52925;52.436;-1.952;2023-07-29T05:33:24;3.53;;;1.80;;
66127;SDS011;52925;52.436;-1.952;2023-07-29T05:34:45;3.93;;;2.10;;
66127;SDS011;52925;52.436;-1.952;2023-07-29T05:36:06;2.70;;;1.93;;
66127;SDS011;52925;52.436;-1.952;2023-07-29T05:37:27;3.83;;;1.80;;
66127;SDS011;52925;52.436;-1.952;2023-07-29T05:38:48;3.60;;;1.60;;
66127;SDS011;52925;52.436;-1.952;2023-07-29T05:40:09;3.87;;;2.00;;
66127;SDS011;52925;52.436;-1.952;2023-07-29T05:41:31;6.33;;;2.00;;
66127;SDS011;52925;52.436;-1.952;2023-07-29T05:42:51;3.73;;;1.93;;
66127;SDS011;52925;52.436;-1.952;2023-07-29T05:44:12;2.40;;;1.70;;
66127;SDS011;52925;52.436;-1.952;2023-07-29T05:45:32;3.77;;;1.90;;
66127;SDS011;52925;52.436;-1.952;2023-07-29T05:46:53;3.67;;;1.97;;
66127;SDS011;52925;52.436;-1.952;2023-07-29T05:48:13;3.10;;;2.10;;
66127;SDS011;52925;52.436;-1.952;2023-07-29T05:49:34;4.07;;;2.00;;
66127;SDS011;52925;52.436;-1.952;2023-07-29T05:50:54;3.77;;;2.03;;
66127;SDS011;52925;52.436;-1.952;2023-07-29T05:52:15;4.73;;;1.83;;
66127;SDS011;52925;52.436;-1.952;2023-07-29T05:53:35;3.27;;;2.00;;
66127;SDS011;52925;52.436;-1.952;2023-07-29T05:54:56;4.30;;;2.03;;
66127;SDS011;52925;52.436;-1.952;2023-07-29T05:56:17;3.73;;;2.17;;
66127;SDS011;52925;52.436;-1.952;2023-07-29T05:57:38;4.03;;;2.07;;
66127;SDS011;52925;52.436;-1.952;2023-07-29T05:59:00;6.17;;;2.07;;
66127;SDS011;52925;52.436;-1.952;2023-07-29T06:00:21;4.27;;;2.20;;
66127;SDS011;52925;52.436;-1.952;2023-07-29T06:01:41;3.30;;;2.10;;
66127;SDS011;52925;52.436;-1.952;2023-07-29T06:03:02;4.03;;;2.10;;
66127;SDS011;52925;52.436;-1.952;2023-07-29T06:04:22;3.63;;;2.20;;
66127;SDS011;52925;52.436;-1.952;2023-07-29T06:05:43;4.47;;;2.23;;
66127;SDS011;52925;52.436;-1.952;2023-07-29T06:07:03;2.70;;;2.10;;
66127;SDS011;52925;52.436;-1.952;2023-07-29T06:08:24;4.77;;;2.13;;
66127;SDS011;52925;52.436;-1.952;2023-07-29T06:09:47;4.27;;;2.33;;
66127;SDS011;52925;52.436;-1.952;2023-07-29T06:11:08;4.63;;;1.97;;
66127;SDS011;52925;52.436;-1.952;2023-07-29T06:12:30;4.40;;;2.30;;
66127;SDS011;52925;52.436;-1.952;2023-07-29T06:13:49;4.03;;;1.97;;
66127;SDS011;52925;52.436;-1.952;2023-07-29T06:15:10;4.83;;;2.23;;
66127;SDS011;52925;52.436;-1.952;2023-07-29T06:16:31;5.53;;;2.60;;
66127;SDS011;52925;52.436;-1.952;2023-07-29T06:17:51;4.23;;;2.13;;
66127;SDS011;52925;52.436;-1.952;2023-07-29T06:19:12;3.77;;;2.00;;
66127;SDS011;52925;52.436;-1.952;2023-07-29T06:20:34;4.80;;;1.97;;
66127;SDS011;52925;52.436;-1.952;2023-07-29T06:21:55;5.17;;;2.10;;
66127;SDS011;52925;52.436;-1.952;2023-07-29T06:23:16;3.33;;;2.10;;
66127;SDS011;52925;52.436;-1.952;2023-07-29T06:24:36;2.07;;;1.67;;
66127;SDS011;52925;52.436;-1.952;2023-07-29T06:25:57;3.73;;;2.20;;
66127;SDS011;52925;52.436;-1.952;2023-07-29T06:27:16;4.90;;;2.17;;
66127;SDS011;52925;52.436;-1.952;2023-07-29T06:28:38;5.33;;;2.43;;
66127;SDS011;52925;52.436;-1.952;2023-07-29T06:29:58;3.73;;;2.10;;
66127;SDS011;52925;52.436;-1.952;2023-07-29T06:31:20;2.90;;;1.83;;
66127;SDS011;52925;52.436;-1.952;2023-07-29T06:32:39;4.63;;;2.30;;
66127;SDS011;52925;52.436;-1.952;2023-07-29T06:34:00;4.53;;;2.40;;
66127;SDS011;52925;52.436;-1.952;2023-07-29T06:35:20;3.97;;;2.00;;
66127;SDS011;52925;52.436;-1.952;2023-07-29T06:36:41;3.80;;;1.90;;
66127;SDS011;52925;52.436;-1.952;2023-07-29T06:38:01;4.10;;;2.30;;
66127;SDS011;52925;52.436;-1.952;2023-07-29T06:39:21;4.13;;;2.10;;
66127;SDS011;52925;52.436;-1.952;2023-07-29T06:40:41;2.90;;;2.07;;
66127;SDS011;52925;52.436;-1.952;2023-07-29T06:42:02;4.73;;;1.90;;
66127;SDS011;52925;52.436;-1.952;2023-07-29T06:43:22;4.07;;;2.23;;
66127;SDS011;52925;52.436;-1.952;2023-07-29T06:44:44;2.83;;;1.73;;
66127;SDS011;52925;52.436;-1.952;2023-07-29T06:46:05;4.03;;;2.30;;
66127;SDS011;52925;52.436;-1.952;2023-07-29T06:47:26;3.73;;;2.00;;
66127;SDS011;52925;52.436;-1.952;2023-07-29T06:48:45;3.77;;;2.17;;
66127;SDS011;52925;52.436;-1.952;2023-07-29T06:50:06;2.83;;;1.90;;
66127;SDS011;52925;52.436;-1.952;2023-07-29T06:51:27;3.93;;;2.07;;
66127;SDS011;52925;52.436;-1.952;2023-07-29T06:52:51;4.30;;;1.90;;
66127;SDS011;52925;52.436;-1.952;2023-07-29T06:54:11;4.30;;;2.40;;
66127;SDS011;52925;52.436;-1.952;2023-07-29T06:55:32;2.90;;;1.73;;
66127;SDS011;52925;52.436;-1.952;2023-07-29T06:56:52;5.23;;;1.93;;
66127;SDS011;52925;52.436;-1.952;2023-07-29T06:58:12;3.97;;;2.20;;
66127;SDS011;52925;52.436;-1.952;2023-07-29T06:59:32;4.30;;;1.93;;
66127;SDS011;52925;52.436;-1.952;2023-07-29T07:00:54;3.77;;;2.00;;
66127;SDS011;52925;52.436;-1.952;2023-07-29T07:02:14;4.57;;;2.30;;
66127;SDS011;52925;52.436;-1.952;2023-07-29T07:03:35;2.17;;;1.80;;
66127;SDS011;52925;52.436;-1.952;2023-07-29T07:04:55;4.13;;;1.80;;
66127;SDS011;52925;52.436;-1.952;2023-07-29T07:06:16;4.80;;;2.03;;
66127;SDS011;52925;52.436;-1.952;2023-07-29T07:07:36;3.47;;;1.97;;
66127;SDS011;52925;52.436;-1.952;2023-07-29T07:08:57;2.73;;;1.60;;
66127;SDS011;52925;52.436;-1.952;2023-07-29T07:10:17;3.17;;;2.00;;
66127;SDS011;52925;52.436;-1.952;2023-07-29T07:11:38;3.70;;;1.80;;
66127;SDS011;52925;52.436;-1.952;2023-07-29T07:12:58;4.10;;;1.97;;
66127;SDS011;52925;52.436;-1.952;2023-07-29T07:14:19;2.13;;;1.87;;
66127;SDS011;52925;52.436;-1.952;2023-07-29T07:15:39;3.93;;;1.80;;
66127;SDS011;52925;52.436;-1.952;2023-07-29T07:17:01;4.50;;;2.07;;
66127;SDS011;52925;52.436;-1.952;2023-07-29T07:18:21;3.20;;;1.83;;
66127;SDS011;52925;52.436;-1.952;2023-07-29T07:19:42;3.80;;;1.70;;
66127;SDS011;52925;52.436;-1.952;2023-07-29T07:21:02;2.87;;;2.00;;
66127;SDS011;52925;52.436;-1.952;2023-07-29T07:22:23;3.03;;;1.70;;
66127;SDS011;52925;52.436;-1.952;2023-07-29T07:23:43;5.67;;;1.90;;
66127;SDS011;52925;52.436;-1.952;2023-07-29T07:25:03;3.17;;;1.90;;
66127;SDS011;52925;52.436;-1.952;2023-07-29T07:26:24;4.67;;;1.80;;
66127;SDS011;52925;52.436;-1.952;2023-07-29T07:27:45;3.10;;;1.60;;
66127;SDS011;52925;52.436;-1.952;2023-07-29T07:29:05;4.37;;;1.90;;
66127;SDS011;52925;52.436;-1.952;2023-07-29T07:30:25;2.83;;;1.90;;
66127;SDS011;52925;52.436;-1.952;2023-07-29T07:31:49;3.33;;;1.90;;
66127;SDS011;52925;52.436;-1.952;2023-07-29T07:33:12;4.57;;;1.83;;
66127;SDS011;52925;52.436;-1.952;2023-07-29T07:34:33;3.43;;;2.07;;
66127;SDS011;52925;52.436;-1.952;2023-07-29T07:35:54;4.20;;;1.93;;
66127;SDS011;52925;52.436;-1.952;2023-07-29T07:37:14;5.30;;;2.30;;
66127;SDS011;52925;52.436;-1.952;2023-07-29T07:38:35;2.93;;;1.87;;
66127;SDS011;52925;52.436;-1.952;2023-07-29T07:39:55;3.87;;;2.07;;
66127;SDS011;52925;52.436;-1.952;2023-07-29T07:41:16;3.57;;;1.90;;
66127;SDS011;52925;52.436;-1.952;2023-07-29T07:42:36;3.07;;;1.60;;
66127;SDS011;52925;52.436;-1.952;2023-07-29T07:43:57;3.60;;;2.00;;
66127;SDS011;52925;52.436;-1.952;2023-07-29T07:45:17;4.27;;;2.10;;
66127;SDS011;52925;52.436;-1.952;2023-07-29T07:46:38;6.03;;;1.87;;
66127;SDS011;52925;52.436;-1.952;2023-07-29T07:47:57;5.53;;;2.13;;
66127;SDS011;52925;52.436;-1.952;2023-07-29T07:49:20;3.87;;;2.07;;
66127;SDS011;52925;52.436;-1.952;2023-07-29T07:50:40;3.40;;;2.30;;
66127;SDS011;52925;52.436;-1.952;2023-07-29T07:52:01;3.20;;;1.90;;
66127;SDS011;52925;52.436;-1.952;2023-07-29T07:53:21;2.30;;;1.80;;
66127;SDS011;52925;52.436;-1.952;2023-07-29T07:54:42;2.67;;;1.93;;
66127;SDS011;52925;52.436;-1.952;2023-07-29T07:56:03;4.27;;;2.30;;
66127;SDS011;52925;52.436;-1.952;2023-07-29T07:57:23;4.50;;;1.87;;
66127;SDS011;52925;52.436;-1.952;2023-07-29T07:58:44;4.50;;;2.23;;
66127;SDS011;52925;52.436;-1.952;2023-07-29T08:00:05;3.33;;;2.20;;
66127;SDS011;52925;52.436;-1.952;2023-07-29T08:01:34;3.20;;;2.27;;